Time;durP1;ratioP1;P1;durP2;ratioP2;P2;SDS_P1;SDS_P2;PMS_P1;PMS_P2;Temp;Humidity;BMP_temperature;BMP_pressure;BME280_temperature;BME280_humidity;BME280_pressure;Samples;Min_cycle;Max_cycle;Signal;HPM_P1;HPM_P2
2023/02/24 00:02:18;;;;;;;0.45;0.45;;;;;;;7.11;78.22;100424.59;4990379;28;20034;-53
2023/02/24 00:04:44;;;;;;;0.20;0.20;;;;;;;6.70;81.58;100414.91;4980926;28;20106;-56
2023/02/24 00:07:11;;;;;;;0.20;0.20;;;;;;;6.78;81.60;100416.69;4989155;28;20415;-56
2023/02/24 00:09:38;;;;;;;0.55;0.55;;;;;;;6.94;81.65;100412.25;4997370;28;20026;-58
2023/02/24 00:12:12;;;;;;;0.20;0.20;;;;;;;6.83;82.24;100407.69;4990134;28;20042;-58
2023/02/24 00:14:40;;;;;;;0.20;0.20;;;;;;;6.94;82.50;100406.88;4985319;28;20066;-53
2023/02/24 00:17:07;;;;;;;0.20;0.20;;;;;;;7.03;82.05;100410.22;4972393;28;20034;-54
2023/02/24 00:19:32;;;;;;;0.50;0.50;;;;;;;6.97;82.77;100403.53;4989778;28;20460;-54
2023/02/24 00:22:03;;;;;;;0.20;0.20;;;;;;;7.04;82.40;100390.38;4986485;28;20041;-57
2023/02/24 00:24:29;;;;;;;0.20;0.20;;;;;;;6.91;83.09;100383.47;4988032;28;20026;-54
2023/02/24 00:27:00;;;;;;;0.20;0.20;;;;;;;7.14;82.16;100395.25;4988575;28;20396;-56
2023/02/24 00:29:28;;;;;;;0.20;0.20;;;;;;;7.01;81.95;100391.03;4988770;28;20426;-54
2023/02/24 00:32:05;;;;;;;0.20;0.20;;;;;;;7.25;81.75;100385.66;4990414;28;20129;-60
2023/02/24 00:34:35;;;;;;;0.20;0.20;;;;;;;7.12;81.86;100384.09;4986356;28;20485;-52
2023/02/24 00:37:01;;;;;;;0.20;0.20;;;;;;;7.32;81.27;100390.41;4988219;28;20124;-55
2023/02/24 00:39:29;;;;;;;0.50;0.40;;;;;;;7.23;80.95;100389.78;4987312;28;20030;-54
2023/02/24 00:42:03;;;;;;;0.20;0.20;;;;;;;7.37;81.04;100378.69;4989125;28;20026;-55
2023/02/24 00:44:37;;;;;;;0.20;0.20;;;;;;;7.43;80.29;100377.31;4986898;28;20027;-57
2023/02/24 00:47:04;;;;;;;0.20;0.20;;;;;;;7.42;80.18;100373.88;4988364;28;20042;-55
2023/02/24 00:49:34;;;;;;;0.22;0.22;;;;;;;7.32;80.40;100363.63;5002984;28;20121;-57
2023/02/24 00:52:03;;;;;;;0.20;0.20;;;;;;;6.99;82.90;100363.81;4989659;28;20433;-54
2023/02/24 00:54:29;;;;;;;0.20;0.20;;;;;;;7.11;83.05;100358.44;4988471;28;20436;-57
2023/02/24 00:56:55;;;;;;;0.20;0.20;;;;;;;7.42;81.28;100365.03;4983984;28;20104;-60
2023/02/24 00:59:22;;;;;;;0.20;0.20;;;;;;;7.55;80.48;100358.53;4990038;28;20042;-57
2023/02/24 01:01:49;;;;;;;0.20;0.20;;;;;;;7.54;80.17;100351.59;4990360;28;20105;-56
2023/02/24 01:04:17;;;;;;;0.20;0.20;;;;;;;7.52;80.07;100338.56;4983986;28;20430;-56
2023/02/24 01:06:46;;;;;;;0.20;0.20;;;;;;;7.50;79.97;100338.13;4989465;28;20042;-55
2023/02/24 01:09:17;;;;;;;0.30;0.30;;;;;;;7.67;79.25;100331.66;4986698;28;20468;-57
2023/02/24 01:14:30;;;;;;;0.20;0.20;;;;;;;7.37;79.75;100328.59;4985494;28;20030;-52
2023/02/24 01:16:57;;;;;;;0.20;0.20;;;;;;;7.24;78.74;100321.69;4989892;28;20042;-56
2023/02/24 01:19:30;;;;;;;1.00;0.65;;;;;;;7.14;79.53;100317.59;4989660;28;20031;-52
2023/02/24 01:22:01;;;;;;;0.30;0.30;;;;;;;6.95;79.29;100319.34;4985632;28;20121;-57
2023/02/24 01:24:30;;;;;;;0.20;0.20;;;;;;;6.71;80.88;100316.72;4985775;28;20036;-58
2023/02/24 01:26:56;;;;;;;1.23;0.30;;;;;;;6.87;80.28;100317.59;4988052;28;20121;-60
2023/02/24 01:29:22;;;;;;;0.20;0.20;;;;;;;6.61;81.17;100309.13;4979448;28;20125;-58
2023/02/24 01:31:49;;;;;;;0.20;0.20;;;;;;;6.59;81.93;100300.66;4988229;28;20085;-60
2023/02/24 01:34:16;;;;;;;0.20;0.20;;;;;;;6.81;79.96;100287.59;4989058;28;20018;-59
2023/02/24 01:36:42;;;;;;;0.20;0.20;;;;;;;6.90;80.30;100279.44;4984332;28;20046;-59
2023/02/24 01:39:09;;;;;;;0.20;0.20;;;;;;;6.62;81.14;100276.69;4987057;28;20031;-59
2023/02/24 01:41:40;;;;;;;0.20;0.20;;;;;;;6.59;81.41;100280.06;4998741;28;20040;-56
2023/02/24 01:44:28;;;;;;;0.30;0.30;;;;;;;6.79;81.29;100278.34;4989613;28;20118;-59
2023/02/24 01:46:54;;;;;;;0.20;0.20;;;;;;;7.06;80.26;100273.03;4985658;28;20064;-53
2023/02/24 01:49:28;;;;;;;0.35;0.35;;;;;;;7.15;79.28;100273.66;4988937;28;20533;-57
2023/02/24 01:52:05;;;;;;;0.20;0.20;;;;;;;7.14;79.61;100269.41;4988588;28;20084;-56
2023/02/24 01:54:34;;;;;;;0.30;0.30;;;;;;;7.36;78.40;100273.44;4975509;28;20045;-55
2023/02/24 01:57:00;;;;;;;0.20;0.20;;;;;;;7.40;78.02;100271.63;4988804;28;20034;-56
2023/02/24 01:59:29;;;;;;;0.32;0.32;;;;;;;7.46;78.04;100258.78;4989529;28;20042;-56
2023/02/24 02:02:03;;;;;;;0.20;0.20;;;;;;;7.45;78.14;100257.22;4988149;28;20038;-57
2023/02/24 02:04:41;;;;;;;0.20;0.20;;;;;;;7.52;77.09;100260.88;4986545;28;20121;-58
2023/02/24 02:07:10;;;;;;;0.30;0.30;;;;;;;7.37;77.90;100250.13;4984567;28;20030;-58
2023/02/24 02:09:37;;;;;;;0.20;0.20;;;;;;;7.35;77.96;100252.38;4987926;28;20034;-55
2023/02/24 02:12:02;;;;;;;0.28;0.28;;;;;;;7.31;77.67;100246.91;4998816;28;20042;-55
2023/02/24 02:14:30;;;;;;;0.30;0.30;;;;;;;7.39;77.23;100237.16;4986508;28;20029;-57
2023/02/24 02:17:02;;;;;;;0.30;0.30;;;;;;;7.44;76.86;100236.91;4984086;28;20042;-58
2023/02/24 02:20:14;;;;;;;0.20;0.20;;;;;;;7.29;77.70;100230.41;4986068;28;20030;-58
2023/02/24 02:23:05;;;;;;;0.20;0.20;;;;;;;7.15;77.99;100232.72;4985909;28;20062;-59
2023/02/24 02:25:36;;;;;;;0.30;0.30;;;;;;;7.15;77.43;100225.47;4988809;28;20065;-56
2023/02/24 02:28:21;;;;;;;;;;;;;;;7.21;77.68;100221.44;4988420;28;20214;-56
2023/02/24 02:31:17;;;;;;;0.20;0.20;;;;;;;7.20;77.90;100224.44;4981932;28;19914;-59
2023/02/24 02:33:53;;;;;;;0.20;0.20;;;;;;;7.34;76.12;100218.69;4987578;28;20145;-54
2023/02/24 02:36:47;;;;;;;0.20;0.20;;;;;;;7.40;76.20;100206.56;4987671;28;20047;-56
2023/02/24 02:39:19;;;;;;;0.20;0.20;;;;;;;7.27;76.83;100203.19;4989751;28;20080;-57
2023/02/24 02:42:05;;;;;;;1.00;0.45;;;;;;;7.41;76.27;100195.53;4989625;28;20034;-58
2023/02/24 02:44:38;;;;;;;0.20;0.20;;;;;;;7.35;76.03;100198.81;4984309;28;20580;-53
2023/02/24 02:47:22;;;;;;;0.20;0.20;;;;;;;7.35;76.76;100191.56;4988808;28;20042;-55
2023/02/24 02:49:59;;;;;;;0.40;0.32;;;;;;;7.30;76.92;100191.78;4971883;28;20026;-57
2023/02/24 02:52:34;;;;;;;0.20;0.20;;;;;;;7.28;76.99;100181.44;4992218;28;20401;-56
2023/02/24 02:55:08;;;;;;;0.22;0.22;;;;;;;7.22;77.63;100176.66;4988716;28;20381;-56
2023/02/24 02:57:37;;;;;;;0.20;0.20;;;;;;;7.37;76.29;100175.13;4993546;28;20046;-60
2023/02/24 03:00:22;;;;;;;0.20;0.20;;;;;;;7.25;76.50;100174.09;4991434;28;20042;-57
2023/02/24 03:02:54;;;;;;;0.30;0.30;;;;;;;7.17;76.93;100160.88;4983727;28;20065;-58
2023/02/24 03:05:28;;;;;;;0.20;0.20;;;;;;;6.92;77.93;100156.75;4987742;28;20497;-60
2023/02/24 03:07:57;;;;;;;0.25;0.25;;;;;;;6.66;78.96;100151.84;4990749;28;20034;-61
2023/02/24 03:10:31;;;;;;;0.20;0.20;;;;;;;6.78;79.17;100143.78;4980489;28;20045;-56
2023/02/24 03:13:00;;;;;;;2.30;0.32;;;;;;;7.03;78.14;100150.56;4990157;28;20061;-58
2023/02/24 03:15:31;;;;;;;0.20;0.20;;;;;;;7.07;77.93;100151.44;5004890;28;20463;-60
2023/02/24 03:18:09;;;;;;;0.20;0.20;;;;;;;7.06;78.06;100144.53;4992539;28;20117;-62
2023/02/24 03:20:40;;;;;;;0.20;0.20;;;;;;;7.20;77.64;100134.16;4989372;28;20034;-61
2023/02/24 03:23:15;;;;;;;0.20;0.20;;;;;;;7.14;78.07;100130.19;4990707;28;20426;-60
2023/02/24 03:25:47;;;;;;;0.30;0.30;;;;;;;7.21;77.13;100130.38;4989051;28;20038;-57
2023/02/24 03:28:23;;;;;;;0.20;0.20;;;;;;;7.19;77.33;100127.28;4990891;28;20089;-55
2023/02/24 03:31:02;;;;;;;0.20;0.20;;;;;;;7.17;77.05;100123.38;4987537;28;20555;-58
2023/02/24 03:33:45;;;;;;;0.57;0.57;;;;;;;7.01;78.26;100109.97;4999682;28;20026;-53
2023/02/24 03:36:13;;;;;;;0.75;0.57;;;;;;;6.81;79.16;100115.56;4988012;28;20121;-57
2023/02/24 03:38:41;;;;;;;0.25;0.25;;;;;;;6.90;78.20;100108.16;4989397;28;20045;-56
2023/02/24 03:41:10;;;;;;;1.48;1.17;;;;;;;7.00;78.69;100110.31;4989810;28;20030;-55
2023/02/24 03:43:46;;;;;;;0.30;0.30;;;;;;;6.87;78.20;100104.25;4990441;28;20018;-54
2023/02/24 03:46:15;;;;;;;0.20;0.20;;;;;;;7.12;77.01;100097.63;4990896;28;20456;-55
2023/02/24 03:48:56;;;;;;;0.20;0.20;;;;;;;6.93;77.74;100091.44;4974680;28;20026;-57
2023/02/24 03:51:22;;;;;;;0.20;0.20;;;;;;;6.71;78.32;100081.28;4974849;28;20034;-58
2023/02/24 03:53:50;;;;;;;0.20;0.20;;;;;;;6.90;77.81;100086.75;4986369;28;20054;-61
2023/02/24 03:56:23;;;;;;;0.30;0.30;;;;;;;6.92;77.64;100079.94;5003483;23;20504;-55
2023/02/24 03:59:08;;;;;;;0.20;0.20;;;;;;;7.17;77.21;100065.25;5026535;28;20038;-54
2023/02/24 04:01:38;;;;;;;0.30;0.30;;;;;;;6.96;77.39;100070.09;5028730;28;20722;-54
2023/02/24 04:04:38;;;;;;;0.30;0.30;;;;;;;7.10;77.03;100069.66;5016537;28;20511;-52
2023/02/24 04:07:36;;;;;;;0.30;0.30;;;;;;;7.18;76.54;100056.09;5004456;28;20069;-53
2023/02/24 04:10:28;;;;;;;0.30;0.30;;;;;;;7.19;76.56;100063.00;5008267;28;20210;-51
2023/02/24 04:12:53;;;;;;;;;;;;;;;7.26;75.29;100040.97;4994646;28;20033;-49
2023/02/24 04:15:31;;;;;;;0.20;0.20;;;;;;;7.20;75.46;100037.03;4998192;28;19914;-52
2023/02/24 04:18:02;;;;;;;0.20;0.20;;;;;;;7.20;75.06;100027.06;5004428;28;20034;-52
2023/02/24 04:20:35;;;;;;;0.30;0.30;;;;;;;7.29;74.51;100019.66;5003642;28;20029;-55
2023/02/24 04:23:28;;;;;;;0.20;0.20;;;;;;;7.23;74.61;100017.56;5005503;28;20687;-51
2023/02/24 04:25:57;;;;;;;;;;;;;;;7.01;75.49;100005.59;4992662;28;20061;-51
2023/02/24 04:28:26;;;;;;;0.20;0.20;;;;;;;7.01;75.65;100000.25;5010217;28;20336;-54
2023/02/24 04:31:08;;;;;;;0.20;0.20;;;;;;;7.00;76.18;99992.56;4998201;28;20481;-53
2023/02/24 04:33:37;;;;;;;0.20;0.20;;;;;;;7.07;75.32;99979.34;5001550;28;20026;-55
2023/02/24 04:36:04;;;;;;;0.20;0.20;;;;;;;6.89;75.87;99967.47;5003961;28;20036;-50
2023/02/24 04:38:35;;;;;;;0.25;0.25;;;;;;;6.91;75.75;99963.28;5009023;28;20068;-51
2023/02/24 04:41:01;;;;;;;0.30;0.30;;;;;;;7.00;74.82;99958.56;5022886;28;20061;-51
2023/02/24 04:43:28;;;;;;;0.20;0.20;;;;;;;6.97;75.60;99959.22;5009490;28;20018;-53
2023/02/24 04:45:54;;;;;;;0.45;0.40;;;;;;;6.87;76.43;99949.03;5000615;28;20042;-51
2023/02/24 04:48:20;;;;;;;0.20;0.20;;;;;;;6.96;75.87;99949.66;4994112;28;20061;-50
2023/02/24 04:50:47;;;;;;;0.20;0.20;;;;;;;6.94;76.60;99951.91;5001140;28;20053;-54
2023/02/24 04:53:15;;;;;;;0.50;0.50;;;;;;;6.92;75.74;99935.41;5002428;28;20037;-53
2023/02/24 04:55:47;;;;;;;0.20;0.20;;;;;;;6.90;76.50;99932.31;5008901;28;20448;-47
2023/02/24 04:58:18;;;;;;;0.20;0.20;;;;;;;6.93;76.41;99930.84;5009554;28;20030;-53
2023/02/24 05:00:47;;;;;;;;;;;;;;;7.01;76.05;99927.97;5009152;28;20108;-52
2023/02/24 05:03:13;;;;;;;0.50;0.50;;;;;;;7.10;76.66;99925.88;5001492;28;19921;-55
2023/02/24 05:05:41;;;;;;;0.30;0.30;;;;;;;7.06;76.55;99917.00;5010139;28;20089;-53
2023/02/24 05:08:09;;;;;;;0.22;0.22;;;;;;;6.95;77.19;99907.19;5009842;28;20078;-53
2023/02/24 05:10:40;;;;;;;0.30;0.30;;;;;;;6.94;77.34;99903.75;5005168;28;20200;-50
2023/02/24 05:13:07;;;;;;;;;;;;;;;6.96;77.83;99893.47;5001321;28;20088;-54
2023/02/24 05:15:37;;;;;;;0.25;0.25;;;;;;;7.04;76.81;99884.47;5008125;28;19971;-52
2023/02/24 05:18:07;;;;;;;0.30;0.30;;;;;;;6.99;77.31;99876.69;5009906;28;20037;-51
2023/02/24 05:23:34;;;;;;;0.30;0.30;;;;;;;6.48;81.14;99877.03;5003902;28;20802;-53
2023/02/24 05:26:02;;;;;;;4.28;0.75;;;;;;;6.79;80.38;99866.31;5005639;28;20034;-55
2023/02/24 05:28:31;;;;;;;0.30;0.30;;;;;;;6.88;79.58;99865.00;5009010;28;20026;-53
2023/02/24 05:31:07;;;;;;;0.30;0.30;;;;;;;6.64;81.26;99857.16;5009434;28;20095;-54
2023/02/24 05:33:37;;;;;;;0.50;0.47;;;;;;;6.91;80.03;99856.25;5005047;28;20042;-55
2023/02/24 05:36:08;;;;;;;0.30;0.30;;;;;;;6.89;80.03;99849.72;4997228;28;20061;-57
2023/02/24 05:38:36;;;;;;;0.30;0.30;;;;;;;6.76;80.97;99841.03;5003298;28;20108;-54
2023/02/24 05:41:16;;;;;;;0.32;0.30;;;;;;;6.84;80.17;99829.34;5002545;28;20044;-54
2023/02/24 05:43:53;;;;;;;0.20;0.20;;;;;;;7.08;79.37;99817.63;4996453;28;20034;-54
2023/02/24 05:46:27;;;;;;;0.20;0.20;;;;;;;6.94;79.82;99820.78;4993082;28;20034;-53
2023/02/24 05:48:58;;;;;;;0.20;0.20;;;;;;;6.81;80.39;99823.94;5004171;28;20117;-57
2023/02/24 05:51:35;;;;;;;0.30;0.30;;;;;;;6.91;79.86;99807.34;5004447;28;20444;-55
2023/02/24 05:54:03;;;;;;;0.20;0.20;;;;;;;6.79;80.68;99802.88;4995200;28;20030;-57
2023/02/24 05:56:31;;;;;;;0.30;0.30;;;;;;;6.87;80.54;99801.88;5004123;28;20025;-56
2023/02/24 05:59:01;;;;;;;0.22;0.22;;;;;;;6.88;80.76;99803.44;4996451;28;20096;-52
2023/02/24 06:01:32;;;;;;;0.30;0.30;;;;;;;7.06;79.83;99801.13;4995122;28;20399;-57
2023/02/24 06:04:04;;;;;;;0.38;0.38;;;;;;;6.92;80.37;99790.13;5009655;28;20048;-56
2023/02/24 06:06:37;;;;;;;0.20;0.20;;;;;;;6.95;80.59;99784.09;5000970;28;20492;-52
2023/02/24 06:09:11;;;;;;;0.20;0.20;;;;;;;6.96;79.80;99781.06;4996016;28;20051;-55
2023/02/24 06:11:39;;;;;;;0.20;0.20;;;;;;;6.92;80.31;99780.22;5005455;28;20030;-54
2023/02/24 06:14:08;;;;;;;0.20;0.20;;;;;;;6.95;80.18;99768.78;4985853;28;20018;-55
2023/02/24 06:16:36;;;;;;;0.20;0.20;;;;;;;7.01;79.34;99767.38;4998710;28;20253;-56
2023/02/24 06:19:03;;;;;;;0.30;0.30;;;;;;;7.05;79.42;99778.94;5022857;28;20029;-50
2023/02/24 06:21:29;;;;;;;0.30;0.30;;;;;;;7.08;79.80;99766.75;5001933;28;20393;-51
2023/02/24 06:23:56;;;;;;;0.25;0.25;;;;;;;7.07;79.82;99760.63;4982015;28;20058;-56
2023/02/24 06:26:23;;;;;;;0.30;0.30;;;;;;;7.03;79.74;99759.78;4983412;28;20037;-57
2023/02/24 06:28:52;;;;;;;0.40;0.40;;;;;;;6.90;80.63;99761.06;4995312;28;20038;-56
2023/02/24 06:31:20;;;;;;;0.28;0.28;;;;;;;6.71;82.35;99754.91;4995285;28;20103;-53
2023/02/24 06:33:46;;;;;;;0.20;0.20;;;;;;;6.84;82.41;99754.44;4988539;28;20089;-51
2023/02/24 06:36:15;;;;;;;0.50;0.28;;;;;;;6.94;82.08;99751.19;4992384;28;20049;-50
2023/02/24 06:38:41;;;;;;;0.30;0.30;;;;;;;6.89;82.71;99751.47;4990146;28;20393;-54
2023/02/24 06:41:10;;;;;;;0.20;0.20;;;;;;;6.85;83.13;99747.94;4996636;28;20029;-56
2023/02/24 06:43:42;;;;;;;0.30;0.30;;;;;;;6.82;83.61;99737.94;4987527;28;20112;-56
2023/02/24 06:46:09;;;;;;;0.20;0.20;;;;;;;6.72;85.36;99738.50;4989608;28;20038;-55
2023/02/24 06:48:36;;;;;;;0.50;0.50;;;;;;;6.71;86.01;99736.97;4990502;28;20034;-55
2023/02/24 06:51:14;;;;;;;0.90;0.40;;;;;;;6.58;87.48;99727.50;5006735;28;20046;-51
2023/02/24 06:53:43;;;;;;;0.20;0.20;;;;;;;6.13;90.94;99735.31;4975413;28;20037;-55
2023/02/24 06:56:14;;;;;;;0.20;0.20;;;;;;;6.16;90.67;99727.38;4996885;28;20033;-56
2023/02/24 06:58:42;;;;;;;0.30;0.30;;;;;;;6.26;90.77;99732.19;4991946;28;20034;-56
2023/02/24 07:01:16;;;;;;;0.20;0.20;;;;;;;6.20;91.72;99712.19;4998916;28;20078;-52
2023/02/24 07:06:28;;;;;;;0.30;0.30;;;;;;;6.47;90.35;99709.69;4992215;28;20560;-55
2023/02/24 07:08:55;;;;;;;0.20;0.20;;;;;;;6.33;91.33;99707.50;4992522;28;20038;-57
2023/02/24 07:11:22;;;;;;;0.50;0.40;;;;;;;5.91;93.56;99699.31;4994867;28;20038;-55
2023/02/24 07:13:48;;;;;;;0.30;0.30;;;;;;;6.12;93.22;99693.66;4990553;28;20078;-49
2023/02/24 07:16:16;;;;;;;0.20;0.20;;;;;;;6.15;92.44;99693.75;4993567;28;20495;-53
2023/02/24 07:18:47;;;;;;;0.20;0.20;;;;;;;6.13;93.01;99689.88;5002951;28;20029;-54
2023/02/24 07:21:15;;;;;;;0.20;0.20;;;;;;;5.93;93.75;99685.59;5003382;28;20042;-53
2023/02/24 07:23:44;;;;;;;0.30;0.30;;;;;;;6.06;93.18;99674.47;5000671;28;20101;-56
2023/02/24 07:26:12;;;;;;;0.40;0.40;;;;;;;6.27;92.41;99679.50;5003296;28;21772;-54
2023/02/24 07:28:39;;;;;;;0.50;0.50;;;;;;;6.09;93.23;99679.13;5003246;28;20038;-53
2023/02/24 07:31:09;;;;;;;0.43;0.43;;;;;;;6.18;93.19;99670.88;4998906;28;20061;-54
2023/02/24 07:33:36;;;;;;;0.40;0.40;;;;;;;6.08;92.75;99660.75;5001882;28;20042;-56
2023/02/24 07:36:09;;;;;;;0.30;0.30;;;;;;;6.01;93.24;99665.94;5005124;28;20034;-53
2023/02/24 07:38:36;;;;;;;0.40;0.40;;;;;;;6.13;93.06;99655.16;4992642;28;20045;-53
2023/02/24 07:41:05;;;;;;;0.35;0.32;;;;;;;6.16;92.83;99654.44;4995782;28;20039;-56
2023/02/24 07:43:34;;;;;;;0.30;0.30;;;;;;;6.18;92.32;99652.97;4994817;28;20022;-56
2023/02/24 07:46:08;;;;;;;0.30;0.30;;;;;;;6.12;93.03;99640.22;4993591;28;20064;-54
2023/02/24 07:48:37;;;;;;;0.52;0.52;;;;;;;5.96;93.59;99634.91;5003418;28;20361;-62
2023/02/24 07:51:11;;;;;;;0.40;0.40;;;;;;;6.06;93.37;99631.69;5009139;28;20123;-52
2023/02/24 07:53:39;;;;;;;0.20;0.20;;;;;;;5.99;93.00;99636.13;5009161;28;20125;-54
2023/02/24 07:56:32;;;;;;;0.43;0.43;;;;;;;5.96;94.05;99624.22;4999031;28;20472;-52
2023/02/24 07:59:01;;;;;;;0.32;0.32;;;;;;;6.07;93.73;99617.22;4948431;29;20078;-52
2023/02/24 08:01:37;;;;;;;0.47;0.47;;;;;;;6.08;93.28;99623.34;4941968;29;20150;-55
2023/02/24 08:04:06;;;;;;;0.30;0.30;;;;;;;6.00;92.93;99613.66;4940450;29;20046;-51
2023/02/24 08:06:38;;;;;;;0.30;0.30;;;;;;;5.97;93.55;99603.63;4929414;29;21749;-56
2023/02/24 08:09:19;;;;;;;0.45;0.45;;;;;;;5.85;93.40;99593.06;4940655;29;20043;-57
2023/02/24 08:11:51;;;;;;;;;;;;;;;5.91;93.42;99597.81;4949498;29;20062;-57
2023/02/24 08:14:22;;;;;;;0.50;0.50;;;;;;;5.84;94.14;99583.53;4945154;29;19922;-55
2023/02/24 08:16:58;;;;;;;0.45;0.45;;;;;;;5.86;94.24;99583.94;4943933;29;20055;-53
2023/02/24 08:19:45;;;;;;;0.30;0.30;;;;;;;5.81;94.13;99576.16;4927988;29;20055;-55
2023/02/24 08:22:22;;;;;;;0.28;0.28;;;;;;;5.87;92.93;99574.78;4945140;29;20118;-55
2023/02/24 08:25:04;;;;;;;0.45;0.45;;;;;;;5.82;93.04;99567.81;4947607;29;20069;-53
2023/02/24 08:27:31;;;;;;;0.20;0.20;;;;;;;5.68;93.26;99559.50;4942177;29;20035;-57
2023/02/24 08:29:59;;;;;;;0.40;0.40;;;;;;;5.53;93.92;99550.38;4947402;29;20077;-56
2023/02/24 08:32:35;;;;;;;0.60;0.60;;;;;;;5.46;95.26;99558.25;4943089;29;20039;-54
2023/02/24 08:35:14;;;;;;;0.22;0.22;;;;;;;5.72;94.28;99555.00;4949097;28;20047;-55
2023/02/24 08:37:50;;;;;;;0.30;0.30;;;;;;;5.64;94.89;99542.63;5000779;28;20037;-57
2023/02/24 08:43:18;;;;;;;0.40;0.40;;;;;;;5.64;95.06;99529.28;4998345;28;20423;-57
2023/02/24 08:45:55;;;;;;;0.30;0.30;;;;;;;5.82;95.03;99519.75;5009536;28;20038;-57
2023/02/24 08:48:37;;;;;;;0.40;0.40;;;;;;;5.63;94.73;99519.72;4998271;28;20066;-58
2023/02/24 08:51:07;;;;;;;0.40;0.40;;;;;;;5.45;95.35;99505.22;5001342;28;20520;-59
2023/02/24 08:53:33;;;;;;;0.30;0.30;;;;;;;5.49;96.17;99500.72;5004306;28;20121;-55
2023/02/24 08:56:08;;;;;;;0.40;0.40;;;;;;;5.54;96.54;99492.44;5002341;28;20030;-56
2023/02/24 08:58:57;;;;;;;0.30;0.30;;;;;;;5.59;96.56;99494.06;4990098;28;20041;-57
2023/02/24 09:01:34;;;;;;;0.30;0.30;;;;;;;5.60;95.80;99484.91;4991163;28;20597;-57
2023/02/24 09:04:04;;;;;;;0.30;0.30;;;;;;;5.53;96.51;99482.09;4992668;28;20366;-54
2023/02/24 09:06:36;;;;;;;0.20;0.20;;;;;;;5.49;96.83;99472.16;4995331;28;20038;-55
2023/02/24 09:09:17;;;;;;;0.25;0.25;;;;;;;5.47;96.82;99482.41;4993946;28;20044;-55
2023/02/24 09:12:04;;;;;;;0.40;0.40;;;;;;;5.51;97.60;99463.78;4994152;28;20030;-55
2023/02/24 09:14:37;;;;;;;0.60;0.60;;;;;;;5.62;96.65;99455.97;4992004;28;20038;-58
2023/02/24 09:17:05;;;;;;;0.30;0.30;;;;;;;5.43;97.31;99452.19;5003501;28;20040;-53
2023/02/24 09:22:31;;;;;;;0.35;0.35;;;;;;;5.71;96.60;99438.63;4994372;28;20030;-57
2023/02/24 09:25:17;;;;;;;0.43;0.43;;;;;;;5.72;96.41;99444.72;4993141;28;20069;-56
2023/02/24 09:27:53;;;;;;;0.30;0.30;;;;;;;5.53;97.84;99428.72;4999786;28;20308;-58
2023/02/24 09:30:37;;;;;;;0.40;0.40;;;;;;;5.90;96.85;99437.88;4989286;28;20042;-57
2023/02/24 09:33:07;;;;;;;0.30;0.30;;;;;;;5.70;95.96;99433.63;4993523;28;20185;-54
2023/02/24 09:35:40;;;;;;;0.38;0.38;;;;;;;5.73;96.99;99427.59;4995429;28;20038;-57
2023/02/24 09:38:06;;;;;;;0.30;0.30;;;;;;;5.66;96.89;99419.44;4994347;28;20034;-53
2023/02/24 09:40:39;;;;;;;0.40;0.40;;;;;;;5.74;97.22;99416.56;4990330;28;20026;-54
2023/02/24 09:43:19;;;;;;;0.68;0.50;;;;;;;5.78;97.68;99416.63;5004077;28;20427;-53
2023/02/24 09:45:52;;;;;;;0.43;0.43;;;;;;;5.76;97.39;99422.31;4996571;28;20405;-55
2023/02/24 09:48:29;;;;;;;0.30;0.30;;;;;;;5.67;97.79;99404.97;5006343;28;20038;-53
2023/02/24 09:51:02;;;;;;;0.55;0.55;;;;;;;5.89;97.43;99407.72;5004174;28;20045;-55
2023/02/24 09:53:28;;;;;;;0.50;0.50;;;;;;;5.95;96.52;99410.88;5003413;28;20461;-56
2023/02/24 09:56:03;;;;;;;0.30;0.30;;;;;;;5.82;97.25;99394.22;5023623;22;20032;-63
2023/02/24 09:58:49;;;;;;;0.30;0.30;;;;;;;5.90;96.76;99397.81;4998966;28;20100;-59
2023/02/24 10:01:49;;;;;;;0.30;0.30;;;;;;;5.86;97.32;99402.31;5006633;28;20466;-60
2023/02/24 10:04:26;;;;;;;0.30;0.30;;;;;;;5.81;97.19;99394.53;4982603;28;20034;-58
2023/02/24 10:07:09;;;;;;;0.30;0.30;;;;;;;5.77;98.00;99393.72;4982043;28;20034;-58
2023/02/24 10:09:54;;;;;;;0.30;0.30;;;;;;;5.83;97.77;99381.59;4986376;28;20041;-57
2023/02/24 10:12:34;;;;;;;0.40;0.40;;;;;;;5.85;97.78;99390.06;4978239;28;20035;-59
2023/02/24 10:15:30;;;;;;;1.30;1.20;;;;;;;5.94;97.56;99378.03;4980600;28;20389;-59
2023/02/24 10:18:05;;;;;;;0.30;0.30;;;;;;;5.95;97.59;99371.56;4985329;28;20046;-55
2023/02/24 10:20:39;;;;;;;0.20;0.20;;;;;;;5.97;98.15;99373.88;4972313;28;20689;-55
2023/02/24 10:23:31;;;;;;;0.80;0.50;;;;;;;6.17;97.26;99359.34;4981862;28;20370;-61
2023/02/24 10:26:20;;;;;;;0.20;0.20;;;;;;;5.97;97.60;99352.50;4974685;28;20074;-63
2023/02/24 10:28:50;;;;;;;0.30;0.30;;;;;;;6.21;97.84;99360.19;4982678;28;20424;-56
2023/02/24 10:31:28;;;;;;;0.57;0.57;;;;;;;6.16;97.21;99352.44;5001161;28;20604;-63
2023/02/24 10:34:18;;;;;;;0.20;0.20;;;;;;;5.94;97.80;99337.94;4979718;28;20043;-60
2023/02/24 10:36:49;;;;;;;0.70;0.70;;;;;;;5.91;99.15;99348.59;4971517;28;20750;-60
2023/02/24 10:39:24;;;;;;;0.40;0.40;;;;;;;6.02;99.23;99342.28;4969807;28;20046;-63
2023/02/24 10:41:56;;;;;;;0.28;0.28;;;;;;;6.14;98.05;99328.75;4963798;28;20293;-63
2023/02/24 10:44:34;;;;;;;;;;;;;;;6.04;98.47;99325.94;4973584;28;20862;-59
2023/02/24 10:47:10;;;;;;;0.20;0.20;;;;;;;5.98;98.40;99332.69;4985944;28;20425;-59
2023/02/24 10:49:55;;;;;;;0.32;0.32;;;;;;;5.95;98.95;99330.72;4974864;28;20061;-61
2023/02/24 10:52:36;;;;;;;0.40;0.40;;;;;;;5.95;98.64;99309.34;4976503;28;20409;-56
2023/02/24 10:55:26;;;;;;;0.23;0.23;;;;;;;6.12;99.17;99308.84;4978886;28;20042;-56
2023/02/24 10:58:14;;;;;;;0.30;0.30;;;;;;;6.27;98.22;99311.41;4980612;28;21044;-62
2023/02/24 11:03:42;;;;;;;0.32;0.32;;;;;;;6.36;97.30;99293.22;4976089;28;20034;-61
2023/02/24 11:07:08;;;;;;;0.40;0.40;;;;;;;6.46;97.64;99297.19;4971360;28;20040;-62
2023/02/24 11:17:25;;;;;;;0.30;0.30;;;;;;;6.29;98.16;99268.28;4977410;28;20038;-58
2023/02/24 11:20:01;;;;;;;0.30;0.30;;;;;;;6.27;99.14;99257.94;4984504;28;20065;-61
2023/02/24 11:22:38;;;;;;;0.65;0.50;;;;;;;6.33;98.17;99255.72;4984749;28;20034;-58
2023/02/24 11:25:26;;;;;;;1.45;0.93;;;;;;;6.34;98.71;99250.03;4986509;28;21247;-61
2023/02/24 11:27:55;;;;;;;4.03;0.50;;;;;;;6.56;98.50;99234.28;4980252;28;20058;-62
2023/02/24 11:30:42;;;;;;;0.85;0.40;;;;;;;6.48;98.44;99230.75;4981309;28;20064;-62
2023/02/24 11:33:38;;;;;;;0.30;0.30;;;;;;;6.48;98.83;99233.41;4973716;28;20041;-58
2023/02/24 11:36:22;;;;;;;0.50;0.50;;;;;;;6.49;99.60;99216.22;4982750;28;20034;-62
2023/02/24 11:39:21;;;;;;;0.30;0.30;;;;;;;6.48;99.98;99220.06;4999120;28;20042;-61
2023/02/24 11:41:52;;;;;;;0.45;0.45;;;;;;;6.46;100.00;99216.97;4978615;28;20027;-58
2023/02/24 11:44:57;;;;;;;0.85;0.63;;;;;;;6.48;100.00;99208.56;4976880;28;20033;-59
2023/02/24 11:47:53;;;;;;;0.65;0.65;;;;;;;6.61;100.00;99201.88;4903003;29;20040;-59
2023/02/24 11:50:45;;;;;;;0.43;0.43;;;;;;;6.67;100.00;99197.72;4979194;28;20459;-58
2023/02/24 11:53:33;;;;;;;0.38;0.38;;;;;;;6.71;99.44;99190.53;4982912;28;20408;-58
2023/02/24 11:56:22;;;;;;;0.40;0.40;;;;;;;6.81;99.24;99190.66;4986427;28;20089;-61
2023/02/24 11:59:01;;;;;;;0.30;0.30;;;;;;;6.78;98.96;99185.25;4975073;28;20049;-61
2023/02/24 12:01:39;;;;;;;0.70;0.43;;;;;;;6.53;100.00;99186.84;4972823;28;20038;-62
2023/02/24 12:04:19;;;;;;;0.35;0.35;;;;;;;6.71;100.00;99174.47;4977640;28;20074;-63
2023/02/24 12:06:49;;;;;;;0.85;0.63;;;;;;;6.80;99.84;99172.28;4980591;28;20053;-61
2023/02/24 12:09:19;;;;;;;0.30;0.30;;;;;;;6.79;99.92;99168.06;4981169;28;20244;-61
2023/02/24 12:11:59;;;;;;;0.60;0.60;;;;;;;6.95;99.77;99157.94;4977316;28;20042;-63
2023/02/24 12:14:36;;;;;;;0.80;0.60;;;;;;;6.85;100.00;99169.28;4967095;28;20034;-58
2023/02/24 12:17:25;;;;;;;1.08;0.88;;;;;;;6.82;99.78;99152.06;4980388;28;20034;-59
2023/02/24 12:20:28;;;;;;;0.63;0.60;;;;;;;6.96;99.53;99138.84;4976629;28;20045;-63
2023/02/24 12:23:14;;;;;;;0.88;0.38;;;;;;;7.17;98.28;99136.34;4969466;28;20039;-60
2023/02/24 12:26:18;;;;;;;0.60;0.60;;;;;;;7.07;98.33;99117.50;4979211;28;20521;-57
2023/02/24 12:29:02;;;;;;;0.30;0.30;;;;;;;6.96;100.00;99127.34;4981432;28;20077;-61
2023/02/24 12:31:40;;;;;;;0.20;0.20;;;;;;;7.13;99.62;99124.84;4978269;28;20034;-59
2023/02/24 12:34:30;;;;;;;1.95;0.52;;;;;;;7.16;99.29;99116.06;4977794;28;20389;-58
2023/02/24 12:37:16;;;;;;;1.20;0.70;;;;;;;7.16;98.83;99113.38;4989456;28;20034;-64
2023/02/24 12:39:52;;;;;;;0.80;0.57;;;;;;;7.24;98.58;99117.66;4972315;28;20053;-61